Time;durP1;ratioP1;P1;durP2;ratioP2;P2;SDS_P1;SDS_P2;PMS_P1;PMS_P2;Temp;Humidity;BMP_temperature;BMP_pressure;BME280_temperature;BME280_humidity;BME280_pressure;Samples;Min_cycle;Max_cycle;Signal;HPM_P1;HPM_P2
2022/07/07 00:02:20;;;;;;;2.43;2.17;;;24.80;41.80;;;;;;5024488;28;20312;-45
2022/07/07 00:04:46;;;;;;;2.50;2.30;;;24.90;41.70;;;;;;5029371;28;20224;-46
2022/07/07 00:07:12;;;;;;;2.83;2.50;;;24.80;41.70;;;;;;5025644;28;20190;-46
2022/07/07 00:09:38;;;;;;;2.33;2.23;;;24.80;41.80;;;;;;5022785;28;20233;-46
2022/07/07 00:12:04;;;;;;;2.30;2.10;;;24.90;41.80;;;;;;5021108;28;20280;-46
2022/07/07 00:14:29;;;;;;;3.47;2.10;;;24.90;41.80;;;;;;5022649;28;20201;-46
2022/07/07 00:16:56;;;;;;;2.80;2.30;;;24.90;41.50;;;;;;5024877;28;20490;-48
2022/07/07 00:19:23;;;;;;;2.90;2.70;;;24.90;41.60;;;;;;5023007;28;20254;-46
2022/07/07 00:21:48;;;;;;;3.70;2.20;;;24.90;41.60;;;;;;5023393;28;20452;-46
2022/07/07 00:24:14;;;;;;;2.50;2.30;;;24.90;41.70;;;;;;5019970;28;20456;-45
2022/07/07 00:26:40;;;;;;;4.57;2.53;;;24.80;41.50;;;;;;5021370;28;20197;-48
2022/07/07 00:29:06;;;;;;;2.53;2.33;;;24.80;41.60;;;;;;5022522;28;20197;-46
2022/07/07 00:31:32;;;;;;;3.03;2.40;;;24.80;41.60;;;;;;5025611;28;20244;-46
2022/07/07 00:33:58;;;;;;;4.17;2.67;;;24.90;41.90;;;;;;5021046;28;21159;-46
2022/07/07 00:36:24;;;;;;;2.77;2.53;;;24.90;41.50;;;;;;5028123;28;20315;-46
2022/07/07 00:38:49;;;;;;;2.63;2.40;;;24.90;41.60;;;;;;5023124;28;20181;-45
2022/07/07 00:41:15;;;;;;;3.63;2.50;;;24.80;41.20;;;;;;5027137;28;20294;-46
2022/07/07 00:43:42;;;;;;;2.90;1.97;;;24.80;41.80;;;;;;5025673;28;20200;-46
2022/07/07 00:46:09;;;;;;;4.03;2.60;;;24.80;41.80;;;;;;5028169;28;20954;-46
2022/07/07 00:48:38;;;;;;;2.90;2.30;;;24.80;41.40;;;;;;5024356;28;20436;-47
2022/07/07 00:51:04;;;;;;;2.50;2.30;;;24.80;41.90;;;;;;5024436;28;20470;-46
2022/07/07 00:53:30;;;;;;;2.93;2.43;;;24.70;41.60;;;;;;5025424;28;20467;-49
2022/07/07 00:55:56;;;;;;;3.30;2.00;;;24.70;41.80;;;;;;5026198;28;20549;-46
2022/07/07 00:58:22;;;;;;;2.60;2.40;;;24.70;41.90;;;;;;5020729;28;20518;-47
2022/07/07 01:00:48;;;;;;;4.90;2.50;;;24.70;41.80;;;;;;5028000;28;20196;-46
2022/07/07 01:03:14;;;;;;;3.13;2.60;;;24.70;42.00;;;;;;5024797;28;20455;-48
2022/07/07 01:05:41;;;;;;;4.03;2.20;;;24.70;42.20;;;;;;5026126;28;20435;-46
2022/07/07 01:08:08;;;;;;;5.10;2.40;;;24.70;42.30;;;;;;5023726;28;20444;-52
2022/07/07 01:10:34;;;;;;;2.50;2.27;;;24.70;42.10;;;;;;5019237;28;20479;-46
2022/07/07 01:13:04;;;;;;;2.90;2.17;;;24.70;42.10;;;;;;5019919;28;20455;-45
2022/07/07 01:15:30;;;;;;;2.63;1.90;;;24.70;42.00;;;;;;5020091;28;20216;-47
2022/07/07 01:17:56;;;;;;;2.40;2.20;;;24.60;42.00;;;;;;5027180;28;20474;-44
2022/07/07 01:20:22;;;;;;;3.30;2.07;;;24.70;42.10;;;;;;5022000;28;20510;-45
2022/07/07 01:22:52;;;;;;;5.33;2.20;;;24.70;41.80;;;;;;5024686;28;20440;-44
2022/07/07 01:25:18;;;;;;;2.07;1.93;;;24.60;41.90;;;;;;5026872;28;20484;-47
2022/07/07 01:27:44;;;;;;;2.30;2.03;;;24.60;41.90;;;;;;5025326;28;20535;-45
2022/07/07 01:30:10;;;;;;;2.20;2.10;;;24.60;42.20;;;;;;5020617;28;20530;-46
2022/07/07 01:32:36;;;;;;;2.23;2.13;;;24.60;42.00;;;;;;5026003;28;20220;-44
2022/07/07 01:35:02;;;;;;;3.27;2.13;;;24.60;42.20;;;;;;5021687;28;20436;-46
2022/07/07 01:37:28;;;;;;;2.40;2.20;;;24.60;41.90;;;;;;5024457;28;20284;-44
2022/07/07 01:39:54;;;;;;;3.07;2.47;;;24.60;42.20;;;;;;5026425;28;20467;-44
2022/07/07 01:42:20;;;;;;;2.50;2.30;;;24.50;42.30;;;;;;5030410;28;20692;-46
2022/07/07 01:44:46;;;;;;;2.40;2.20;;;24.50;42.60;;;;;;5025021;28;20448;-46
2022/07/07 01:47:12;;;;;;;2.57;2.17;;;24.50;42.50;;;;;;5024122;28;20475;-45
2022/07/07 01:49:39;;;;;;;2.50;2.30;;;24.50;42.10;;;;;;5029730;28;20653;-47
2022/07/07 01:52:05;;;;;;;5.20;2.83;;;24.50;42.40;;;;;;5030455;28;20440;-46
2022/07/07 01:54:33;;;;;;;2.87;2.53;;;24.50;42.60;;;;;;5026840;28;20453;-48
2022/07/07 01:56:58;;;;;;;4.47;2.50;;;24.40;42.60;;;;;;5029735;28;20514;-45
2022/07/07 01:59:24;;;;;;;2.80;2.33;;;24.50;42.90;;;;;;5032490;28;20447;-46
2022/07/07 02:01:50;;;;;;;2.73;2.10;;;24.50;42.80;;;;;;5029963;28;20197;-44
2022/07/07 02:04:16;;;;;;;4.90;2.73;;;24.50;42.70;;;;;;5028574;28;20523;-44
2022/07/07 02:06:42;;;;;;;3.27;2.50;;;24.50;42.40;;;;;;5031866;28;20526;-44
2022/07/07 02:09:08;;;;;;;3.00;2.07;;;24.50;42.70;;;;;;5030974;28;20261;-44
2022/07/07 02:11:34;;;;;;;5.30;2.37;;;24.50;42.70;;;;;;5033391;28;20217;-47
2022/07/07 02:14:01;;;;;;;4.73;2.70;;;24.30;42.70;;;;;;5030802;28;20448;-46
2022/07/07 02:16:27;;;;;;;5.93;2.40;;;24.30;42.90;;;;;;5028895;28;20506;-48
2022/07/07 02:18:57;;;;;;;3.03;2.33;;;24.30;43.00;;;;;;5029986;28;20505;-45
2022/07/07 02:21:24;;;;;;;2.80;2.60;;;24.30;43.20;;;;;;5027450;28;20810;-44
2022/07/07 02:23:51;;;;;;;3.63;2.80;;;24.30;43.20;;;;;;5030693;28;20514;-45
2022/07/07 02:26:17;;;;;;;2.93;2.10;;;24.30;43.20;;;;;;5028636;28;20502;-46
2022/07/07 02:28:43;;;;;;;2.57;2.30;;;24.40;43.30;;;;;;5028058;28;20448;-45
2022/07/07 02:31:09;;;;;;;6.37;2.73;;;24.50;43.30;;;;;;5026926;28;20452;-45
2022/07/07 02:33:36;;;;;;;2.40;2.20;;;24.40;43.10;;;;;;5032927;28;20250;-45
2022/07/07 02:36:05;;;;;;;4.00;3.50;;;24.40;43.20;;;;;;5022832;28;20504;-46
2022/07/07 02:38:32;;;;;;;3.87;3.27;;;24.50;43.10;;;;;;5031317;28;20439;-45
2022/07/07 02:40:58;;;;;;;2.70;2.50;;;24.50;42.80;;;;;;5031406;28;20444;-44
2022/07/07 02:43:24;;;;;;;3.33;2.40;;;24.50;42.70;;;;;;5027370;28;20485;-45
2022/07/07 02:45:50;;;;;;;3.23;2.40;;;24.50;43.10;;;;;;5030979;28;20199;-50
2022/07/07 02:48:20;;;;;;;3.63;2.43;;;24.50;42.90;;;;;;5030205;28;20501;-45
2022/07/07 02:50:46;;;;;;;2.67;2.47;;;24.50;42.70;;;;;;5029769;28;20951;-50
2022/07/07 02:53:13;;;;;;;3.27;2.47;;;24.50;42.90;;;;;;5027915;28;20440;-45
2022/07/07 02:55:40;;;;;;;2.67;2.47;;;24.50;43.00;;;;;;5024943;28;20542;-48
2022/07/07 02:58:07;;;;;;;2.50;2.30;;;24.40;42.90;;;;;;5024490;28;20519;-48
2022/07/07 03:00:36;;;;;;;10.83;2.57;;;24.40;42.80;;;;;;5025611;28;20471;-50
2022/07/07 03:03:07;;;;;;;3.73;2.40;;;24.50;42.50;;;;;;5027537;28;20814;-48
2022/07/07 03:05:33;;;;;;;4.97;2.70;;;24.50;42.40;;;;;;5024967;28;20469;-50
2022/07/07 03:07:59;;;;;;;2.30;2.20;;;24.40;42.70;;;;;;5027289;28;20439;-47
2022/07/07 03:10:25;;;;;;;5.00;2.40;;;24.40;42.70;;;;;;5029074;28;20790;-48
2022/07/07 03:12:51;;;;;;;2.90;2.47;;;24.40;42.20;;;;;;5018100;28;20621;-49
2022/07/07 03:15:17;;;;;;;2.60;2.37;;;24.20;42.40;;;;;;5027854;28;20668;-49
2022/07/07 03:17:44;;;;;;;4.43;3.07;;;24.20;42.80;;;;;;5026988;28;20709;-49
2022/07/07 03:20:11;;;;;;;3.57;2.80;;;24.10;42.80;;;;;;5018822;28;20622;-48
2022/07/07 03:22:38;;;;;;;4.00;2.90;;;23.90;43.40;;;;;;5025452;28;20444;-49
2022/07/07 03:25:04;;;;;;;4.53;2.80;;;23.90;43.90;;;;;;5024678;28;20475;-49
2022/07/07 03:27:30;;;;;;;2.97;2.77;;;23.90;44.00;;;;;;5023890;28;20432;-50
2022/07/07 03:29:56;;;;;;;6.30;3.50;;;23.80;44.00;;;;;;5027524;28;20505;-49
2022/07/07 03:32:22;;;;;;;2.40;2.20;;;23.80;44.20;;;;;;5019968;28;20276;-48
2022/07/07 03:34:48;;;;;;;2.83;2.53;;;23.90;44.00;;;;;;5028715;28;20531;-50
2022/07/07 03:37:13;;;;;;;2.73;2.53;;;23.90;43.90;;;;;;5025168;28;20232;-48
2022/07/07 03:39:39;;;;;;;3.47;3.07;;;24.00;44.10;;;;;;5022917;28;20276;-49
2022/07/07 03:42:05;;;;;;;2.73;2.53;;;24.00;43.70;;;;;;5029326;28;20224;-45
2022/07/07 03:44:30;;;;;;;2.80;2.60;;;24.00;43.60;;;;;;5023584;28;20206;-49
2022/07/07 03:46:56;;;;;;;3.20;2.47;;;24.00;43.20;;;;;;5024453;28;20193;-50
2022/07/07 03:49:22;;;;;;;3.80;2.37;;;23.90;43.10;;;;;;5025392;28;20194;-50
2022/07/07 03:51:47;;;;;;;2.60;2.40;;;23.90;43.60;;;;;;5027082;28;20205;-50
2022/07/07 03:54:13;;;;;;;4.93;2.83;;;23.90;43.60;;;;;;5027706;28;20703;-48
2022/07/07 03:56:40;;;;;;;3.47;2.60;;;23.90;43.80;;;;;;5026104;28;20233;-48
2022/07/07 03:59:05;;;;;;;3.00;2.80;;;23.90;43.40;;;;;;5029121;28;20197;-51
2022/07/07 04:01:31;;;;;;;4.43;2.67;;;23.90;43.40;;;;;;5025612;28;20646;-49
2022/07/07 04:03:57;;;;;;;3.43;3.00;;;23.90;43.90;;;;;;5023942;28;20247;-47
2022/07/07 04:06:22;;;;;;;2.90;2.40;;;23.90;43.90;;;;;;5026846;28;20194;-50
2022/07/07 04:08:49;;;;;;;2.90;2.50;;;24.00;43.90;;;;;;5020627;28;20768;-49
2022/07/07 04:11:15;;;;;;;2.80;2.60;;;24.00;44.10;;;;;;5025288;28;21974;-48
2022/07/07 04:13:41;;;;;;;2.80;2.40;;;24.00;43.50;;;;;;5027453;28;20978;-47
2022/07/07 04:16:07;;;;;;;2.57;2.37;;;24.00;43.40;;;;;;5023465;28;20488;-48
2022/07/07 04:18:33;;;;;;;2.70;2.40;;;24.00;43.80;;;;;;5019568;28;20200;-50
2022/07/07 04:20:59;;;;;;;3.60;2.57;;;24.00;43.80;;;;;;5023468;28;20493;-49
2022/07/07 04:23:24;;;;;;;3.43;2.40;;;24.00;43.70;;;;;;5024893;28;20452;-48
2022/07/07 04:25:50;;;;;;;3.90;2.57;;;24.00;43.60;;;;;;5019288;28;20193;-47
2022/07/07 04:28:16;;;;;;;4.30;2.67;;;24.00;43.50;;;;;;5022002;28;20201;-49
2022/07/07 04:30:41;;;;;;;2.73;2.53;;;24.00;43.80;;;;;;5024158;28;20272;-49
2022/07/07 04:33:07;;;;;;;2.40;2.20;;;24.00;43.80;;;;;;5026028;28;20205;-48
2022/07/07 04:35:33;;;;;;;4.30;2.30;;;24.00;43.60;;;;;;5024836;28;20196;-49
2022/07/07 04:37:58;;;;;;;2.60;2.40;;;24.00;43.50;;;;;;5020646;28;20245;-46
2022/07/07 04:40:24;;;;;;;2.63;2.40;;;24.00;43.40;;;;;;5019524;28;20190;-47
2022/07/07 04:42:50;;;;;;;7.70;2.60;;;24.00;43.30;;;;;;5026188;28;20231;-48
2022/07/07 04:45:16;;;;;;;3.20;2.33;;;24.00;43.30;;;;;;5029244;28;20197;-47
2022/07/07 04:47:43;;;;;;;3.13;2.33;;;23.90;43.60;;;;;;5020612;28;20200;-50
2022/07/07 04:50:09;;;;;;;2.73;2.50;;;23.80;43.20;;;;;;5021495;28;20452;-48
2022/07/07 04:52:36;;;;;;;5.70;2.60;;;23.80;44.00;;;;;;5040679;28;21197;-48
2022/07/07 04:55:02;;;;;;;2.37;2.17;;;23.80;44.00;;;;;;5027567;28;20444;-49
2022/07/07 04:57:27;;;;;;;4.27;3.90;;;23.90;44.30;;;;;;5025960;28;20490;-48
2022/07/07 04:59:53;;;;;;;3.20;2.43;;;23.80;44.00;;;;;;5027548;28;20436;-48
2022/07/07 05:02:18;;;;;;;3.53;2.73;;;23.90;43.90;;;;;;5027362;28;20196;-50
2022/07/07 05:04:44;;;;;;;3.40;2.93;;;23.90;43.90;;;;;;5026631;28;20211;-45
2022/07/07 05:07:10;;;;;;;2.77;2.43;;;24.00;44.10;;;;;;5025409;28;20189;-48
2022/07/07 05:09:36;;;;;;;3.00;2.20;;;23.90;42.80;;;;;;5027294;28;20309;-49
2022/07/07 05:12:03;;;;;;;2.57;2.13;;;23.90;43.40;;;;;;5025278;28;20540;-50
2022/07/07 05:14:29;;;;;;;2.10;1.97;;;23.90;44.20;;;;;;5025743;28;20185;-50
2022/07/07 05:16:55;;;;;;;2.07;1.70;;;23.90;44.10;;;;;;5027349;28;20499;-48
2022/07/07 05:19:22;;;;;;;2.70;2.07;;;24.00;43.60;;;;;;5027434;28;20197;-45
2022/07/07 05:21:48;;;;;;;2.80;2.43;;;24.00;42.90;;;;;;5022500;28;20505;-50
2022/07/07 05:24:14;;;;;;;3.00;2.13;;;24.00;43.40;;;;;;5020482;28;20432;-47
2022/07/07 05:26:39;;;;;;;2.57;2.03;;;24.20;43.60;;;;;;5031074;28;20712;-45
2022/07/07 05:29:05;;;;;;;6.93;2.43;;;24.30;43.00;;;;;;5029785;28;20246;-46
2022/07/07 05:31:31;;;;;;;3.77;2.03;;;24.40;43.00;;;;;;5029476;28;20406;-49
2022/07/07 05:33:56;;;;;;;3.50;2.40;;;24.50;43.00;;;;;;5030711;28;20652;-48
2022/07/07 05:36:22;;;;;;;4.57;2.30;;;24.60;42.60;;;;;;5023854;28;20217;-50
2022/07/07 05:38:48;;;;;;;4.80;2.40;;;24.70;42.70;;;;;;5029767;28;20296;-48
2022/07/07 05:41:14;;;;;;;2.50;2.30;;;24.70;42.40;;;;;;5029090;28;20190;-46
2022/07/07 05:43:40;;;;;;;2.33;2.10;;;24.80;41.90;;;;;;5029161;28;20435;-49
2022/07/07 05:46:05;;;;;;;2.17;1.80;;;24.70;41.30;;;;;;5021682;28;20189;-46
2022/07/07 05:48:31;;;;;;;2.97;1.90;;;24.50;42.00;;;;;;5022155;28;20208;-46
2022/07/07 05:50:56;;;;;;;2.67;2.10;;;24.40;41.50;;;;;;5028704;28;20240;-49
2022/07/07 05:53:22;;;;;;;2.40;2.20;;;24.40;42.20;;;;;;5028422;28;20203;-50
2022/07/07 05:55:48;;;;;;;1.80;1.70;;;24.40;42.30;;;;;;5031609;28;20266;-48
2022/07/07 05:58:15;;;;;;;6.70;2.40;;;24.50;42.20;;;;;;5028926;28;20650;-47
2022/07/07 06:00:41;;;;;;;3.93;2.50;;;24.70;41.80;;;;;;5031040;28;20181;-50
2022/07/07 06:03:06;;;;;;;10.60;3.47;;;24.70;41.50;;;;;;5029677;28;20497;-49
2022/07/07 06:05:32;;;;;;;2.63;2.10;;;24.70;41.30;;;;;;5031002;28;20247;-45
2022/07/07 06:07:58;;;;;;;4.90;2.03;;;24.80;41.50;;;;;;5028517;28;20205;-47
2022/07/07 06:10:24;;;;;;;6.90;2.30;;;24.90;41.60;;;;;;5029288;28;20240;-49
2022/07/07 06:12:49;;;;;;;8.10;2.30;;;25.00;41.60;;;;;;5029849;28;20665;-50
2022/07/07 06:15:17;;;;;;;2.60;2.40;;;25.00;41.60;;;;;;5027065;28;20193;-49
2022/07/07 06:17:43;;;;;;;5.80;2.57;;;25.00;41.00;;;;;;5024877;28;20229;-49
2022/07/07 06:20:09;;;;;;;3.77;2.00;;;25.00;41.20;;;;;;5029016;28;20450;-49
2022/07/07 06:22:35;;;;;;;6.60;2.17;;;24.30;41.80;;;;;;5027223;28;20201;-50
2022/07/07 06:25:00;;;;;;;4.63;2.47;;;24.30;42.20;;;;;;5025625;28;20444;-52
2022/07/07 06:27:26;;;;;;;3.00;2.13;;;24.40;42.40;;;;;;5030010;28;20831;-47
2022/07/07 06:29:55;;;;;;;2.20;2.00;;;24.60;42.40;;;;;;5029205;28;20845;-50
2022/07/07 06:32:21;;;;;;;3.13;2.07;;;24.70;42.50;;;;;;5027655;28;20267;-47
2022/07/07 06:34:47;;;;;;;5.00;2.33;;;24.70;42.20;;;;;;5027315;28;20501;-48
2022/07/07 06:37:12;;;;;;;4.20;2.20;;;24.60;42.00;;;;;;5022476;28;20487;-49
2022/07/07 06:39:38;;;;;;;3.77;2.33;;;24.00;43.00;;;;;;5028128;28;20279;-49
2022/07/07 06:42:05;;;;;;;7.63;2.33;;;23.70;43.40;;;;;;5028534;28;20958;-52
2022/07/07 06:44:31;;;;;;;3.93;1.93;;;23.60;44.40;;;;;;5030743;28;20276;-48
2022/07/07 06:47:00;;;;;;;6.03;2.23;;;23.80;44.50;;;;;;5032080;28;20563;-52
2022/07/07 06:49:27;;;;;;;2.90;2.37;;;23.90;43.90;;;;;;5017696;28;20429;-48
2022/07/07 06:51:53;;;;;;;2.93;2.30;;;24.30;43.80;;;;;;5029560;28;20462;-45
2022/07/07 06:54:19;;;;;;;2.80;2.00;;;24.20;43.20;;;;;;5030232;28;20877;-49
2022/07/07 06:56:44;;;;;;;3.50;1.90;;;24.30;44.00;;;;;;5028696;28;20578;-47
2022/07/07 06:59:10;;;;;;;3.63;2.40;;;24.60;43.10;;;;;;5031100;28;20312;-45
2022/07/07 07:01:36;;;;;;;6.60;3.10;;;24.80;43.20;;;;;;5029294;28;20587;-49
2022/07/07 07:04:01;;;;;;;5.53;2.77;;;25.00;42.80;;;;;;5030050;28;20323;-45
2022/07/07 07:06:30;;;;;;;3.60;2.17;;;25.20;42.90;;;;;;5029517;28;20201;-49
2022/07/07 07:08:56;;;;;;;7.40;2.40;;;25.40;42.30;;;;;;5028090;28;20588;-47
2022/07/07 07:11:22;;;;;;;3.13;2.70;;;25.30;41.70;;;;;;5029254;28;20455;-51
2022/07/07 07:13:48;;;;;;;8.03;2.17;;;24.80;42.50;;;;;;5030383;28;21207;-50
2022/07/07 07:16:15;;;;;;;6.80;2.40;;;24.60;43.80;;;;;;5027812;28;20221;-45
2022/07/07 07:18:41;;;;;;;2.30;2.10;;;24.70;44.40;;;;;;5017399;28;20221;-49
2022/07/07 07:21:06;;;;;;;2.40;2.20;;;25.00;43.70;;;;;;5031936;28;20542;-50
2022/07/07 07:23:32;;;;;;;2.27;2.07;;;25.20;43.20;;;;;;5014995;28;20685;-46
2022/07/07 07:25:58;;;;;;;2.87;2.43;;;25.40;41.80;;;;;;5029252;28;20205;-45
2022/07/07 07:28:24;;;;;;;2.23;2.03;;;25.50;42.10;;;;;;5030429;28;20208;-51
2022/07/07 07:30:49;;;;;;;3.07;1.90;;;25.50;42.60;;;;;;5028268;28;20947;-51
2022/07/07 07:33:17;;;;;;;2.57;2.37;;;25.50;41.60;;;;;;5029558;28;20200;-46
2022/07/07 07:35:42;;;;;;;2.80;2.20;;;25.60;41.90;;;;;;5017543;28;20244;-49
2022/07/07 07:38:08;;;;;;;7.53;2.57;;;25.60;41.30;;;;;;5029884;28;20542;-52
2022/07/07 07:40:34;;;;;;;3.33;1.90;;;25.70;41.20;;;;;;5029206;28;20196;-47
2022/07/07 07:42:59;;;;;;;7.53;2.50;;;25.50;41.10;;;;;;5027990;28;20205;-46
2022/07/07 07:45:25;;;;;;;2.67;2.20;;;25.50;41.20;;;;;;5029266;28;20189;-48
2022/07/07 07:47:51;;;;;;;6.07;1.90;;;25.60;40.80;;;;;;5030600;28;20189;-51
2022/07/07 07:50:19;;;;;;;3.07;2.20;;;25.60;41.00;;;;;;5029491;28;20868;-48
2022/07/07 07:52:46;;;;;;;4.63;2.67;;;25.70;40.70;;;;;;5027890;28;20224;-51
2022/07/07 07:55:14;;;;;;;3.03;2.03;;;25.50;40.70;;;;;;5030602;28;20931;-48
2022/07/07 07:57:40;;;;;;;5.33;2.10;;;25.30;40.90;;;;;;5026806;28;21105;-47
2022/07/07 08:00:09;;;;;;;3.30;2.10;;;25.20;41.70;;;;;;5030256;28;20432;-48
2022/07/07 08:02:34;;;;;;;6.40;2.50;;;25.00;42.60;;;;;;5027722;28;20475;-46
2022/07/07 08:05:01;;;;;;;4.03;2.10;;;24.90;42.30;;;;;;5029781;28;20932;-47
2022/07/07 08:07:27;;;;;;;3.00;2.37;;;24.70;42.30;;;;;;5026762;28;20440;-48
2022/07/07 08:09:53;;;;;;;2.40;2.20;;;24.70;42.30;;;;;;5029280;28;20774;-47
2022/07/07 08:12:18;;;;;;;3.93;2.30;;;24.80;42.70;;;;;;5027771;28;20446;-47
2022/07/07 08:14:44;;;;;;;3.20;2.23;;;24.80;42.50;;;;;;5011286;28;20198;-51
2022/07/07 08:17:11;;;;;;;2.77;2.17;;;24.80;42.30;;;;;;5019614;28;20220;-46
2022/07/07 08:19:36;;;;;;;5.23;2.07;;;24.50;42.20;;;;;;5021498;28;20188;-47
2022/07/07 08:22:02;;;;;;;4.63;2.37;;;24.40;42.80;;;;;;5030509;28;20428;-48
2022/07/07 08:24:28;;;;;;;4.97;2.47;;;24.30;43.30;;;;;;5029375;28;20185;-48
2022/07/07 08:26:53;;;;;;;4.43;2.27;;;24.30;43.40;;;;;;5027385;28;20440;-47
2022/07/07 08:29:19;;;;;;;4.40;2.27;;;24.20;43.40;;;;;;5028292;28;20235;-45
2022/07/07 08:31:45;;;;;;;5.10;2.20;;;24.00;44.60;;;;;;5019107;28;20189;-45
2022/07/07 08:34:10;;;;;;;2.87;2.47;;;23.90;45.50;;;;;;5028962;28;20185;-50
2022/07/07 08:36:37;;;;;;;5.10;2.47;;;24.00;45.70;;;;;;5019759;28;20331;-48
2022/07/07 08:39:02;;;;;;;2.77;2.57;;;24.00;45.10;;;;;;5030153;28;20524;-49
2022/07/07 08:41:28;;;;;;;4.17;2.30;;;24.00;45.20;;;;;;5029457;28;20190;-46
2022/07/07 08:43:55;;;;;;;3.57;2.40;;;23.90;45.50;;;;;;5040038;28;20649;-45
2022/07/07 08:46:21;;;;;;;5.07;2.60;;;23.70;45.40;;;;;;5029019;28;20232;-50
2022/07/07 08:48:47;;;;;;;2.67;2.20;;;23.60;45.80;;;;;;5026542;28;20444;-47
2022/07/07 08:51:17;;;;;;;3.53;2.70;;;23.70;46.00;;;;;;5028699;28;20192;-47
2022/07/07 08:53:48;;;;;;;5.70;2.60;;;24.10;45.60;;;;;;5029877;28;20284;-46
2022/07/07 08:56:18;;;;;;;4.40;3.00;;;23.90;45.50;;;;;;5026311;28;20480;-48
2022/07/07 08:58:45;;;;;;;3.73;3.33;;;23.70;46.00;;;;;;5041751;28;20452;-46
2022/07/07 09:01:11;;;;;;;3.10;2.50;;;23.70;46.20;;;;;;5029029;28;20436;-46
2022/07/07 09:03:37;;;;;;;5.17;3.23;;;23.60;46.40;;;;;;5029155;28;20489;-49
2022/07/07 09:06:03;;;;;;;3.97;2.67;;;23.70;46.50;;;;;;5022748;28;20688;-45
2022/07/07 09:08:30;;;;;;;7.13;2.90;;;23.90;46.40;;;;;;5025878;28;20444;-49
2022/07/07 09:10:56;;;;;;;2.90;2.70;;;24.00;46.50;;;;;;5026569;28;20448;-46
2022/07/07 09:13:31;;;;;;;7.97;3.20;;;24.20;46.70;;;;;;5029065;28;20451;-48
2022/07/07 09:16:01;;;;;;;4.33;3.13;;;24.00;46.80;;;;;;5027573;28;20243;-49
2022/07/07 09:18:32;;;;;;;3.63;3.27;;;24.00;47.00;;;;;;5025894;28;21304;-48
2022/07/07 09:20:59;;;;;;;3.77;3.10;;;24.30;47.10;;;;;;5027021;28;20448;-45
2022/07/07 09:23:25;;;;;;;7.87;3.27;;;24.40;47.00;;;;;;5028784;28;20448;-46
2022/07/07 09:25:51;;;;;;;3.77;2.87;;;24.40;47.00;;;;;;5025323;28;20459;-46
2022/07/07 09:28:16;;;;;;;6.10;2.27;;;24.40;47.20;;;;;;5028533;28;20470;-48
2022/07/07 09:30:45;;;;;;;2.60;2.27;;;24.30;47.50;;;;;;5025067;28;20197;-50
2022/07/07 09:33:20;;;;;;;2.50;2.27;;;24.30;47.70;;;;;;5027715;28;20225;-49
2022/07/07 09:38:34;;;;;;;2.97;1.97;;;24.20;48.00;;;;;;5024403;28;20823;-47
2022/07/07 09:41:04;;;;;;;7.23;2.13;;;24.40;48.40;;;;;;5014407;28;20459;-47
2022/07/07 09:43:33;;;;;;;2.83;2.40;;;24.50;47.90;;;;;;5014284;28;21007;-48
2022/07/07 09:46:06;;;;;;;4.60;2.67;;;24.50;48.00;;;;;;5017138;28;20966;-48
2022/07/07 09:48:36;;;;;;;2.67;2.37;;;24.50;48.30;;;;;;5026923;28;20444;-49
2022/07/07 09:51:26;;;;;;;4.60;2.27;;;24.50;48.30;;;;;;5028580;28;20455;-46
2022/07/07 09:54:12;;;;;;;2.70;2.50;;;24.10;49.10;;;;;;5015550;28;20463;-45
2022/07/07 09:56:43;;;;;;;2.53;2.33;;;23.90;50.50;;;;;;5027173;28;20537;-47
2022/07/07 09:59:17;;;;;;;3.60;3.10;;;24.00;50.50;;;;;;5027542;28;21301;-50
2022/07/07 10:01:44;;;;;;;3.87;2.87;;;24.20;50.40;;;;;;5033519;28;20431;-48
2022/07/07 10:04:17;;;;;;;3.57;3.07;;;24.10;50.80;;;;;;5029503;28;20444;-48
2022/07/07 10:06:43;;;;;;;5.30;3.93;;;24.30;51.10;;;;;;5032149;28;20962;-50
2022/07/07 10:09:18;;;;;;;3.70;3.30;;;24.40;50.90;;;;;;5031332;28;20483;-49
2022/07/07 10:11:49;;;;;;;3.97;3.00;;;24.60;51.10;;;;;;5031639;28;20451;-50
2022/07/07 10:14:20;;;;;;;2.40;2.20;;;24.60;50.50;;;;;;5033016;28;20974;-48
2022/07/07 10:16:49;;;;;;;5.77;2.43;;;24.80;49.70;;;;;;5031307;28;20519;-49
2022/07/07 10:19:18;;;;;;;4.70;3.23;;;24.50;49.00;;;;;;5031612;28;20455;-50
2022/07/07 10:21:47;;;;;;;3.83;2.50;;;24.50;49.20;;;;;;5030054;28;20444;-51
2022/07/07 10:24:15;;;;;;;2.43;2.23;;;24.40;48.70;;;;;;5031440;28;20443;-48
2022/07/07 10:26:54;;;;;;;2.87;2.50;;;24.40;48.90;;;;;;5030677;28;20451;-47
2022/07/07 10:29:50;;;;;;;3.50;3.20;;;24.50;48.90;;;;;;5033059;28;20423;-50
2022/07/07 10:32:28;;;;;;;3.87;3.50;;;24.70;49.20;;;;;;5013314;28;20464;-49
2022/07/07 10:34:56;;;;;;;2.90;2.60;;;24.50;48.70;;;;;;5022664;28;20527;-47
2022/07/07 10:37:23;;;;;;;2.40;2.30;;;24.50;48.50;;;;;;5022870;28;20546;-46
2022/07/07 10:39:53;;;;;;;2.73;2.10;;;24.20;48.40;;;;;;5027972;28;20433;-51
2022/07/07 10:42:28;;;;;;;2.70;2.50;;;24.00;49.20;;;;;;5029602;28;20522;-47
2022/07/07 10:44:55;;;;;;;3.00;2.70;;;24.20;49.60;;;;;;5033115;28;20461;-46
2022/07/07 10:47:20;;;;;;;4.03;3.20;;;24.10;49.40;;;;;;5027549;28;21248;-47
2022/07/07 10:49:53;;;;;;;3.20;2.97;;;24.10;49.40;;;;;;5031571;28;20448;-47
2022/07/07 10:52:21;;;;;;;3.43;3.13;;;24.00;49.60;;;;;;5031571;28;20228;-47
2022/07/07 10:54:51;;;;;;;4.70;2.70;;;24.10;49.90;;;;;;5027866;28;20447;-48
2022/07/07 10:57:19;;;;;;;5.00;2.60;;;24.20;49.50;;;;;;5026473;28;21334;-49
2022/07/07 11:00:01;;;;;;;2.50;2.30;;;24.10;49.20;;;;;;5028676;28;20452;-46
2022/07/07 11:02:32;;;;;;;2.73;2.30;;;24.00;50.00;;;;;;5029037;28;20550;-46
2022/07/07 11:05:19;;;;;;;1.80;1.70;;;24.00;50.80;;;;;;5032239;28;20420;-48
2022/07/07 11:07:58;;;;;;;2.20;2.00;;;24.10;50.00;;;;;;5026649;28;20502;-46
2022/07/07 11:10:49;;;;;;;3.70;2.50;;;24.30;50.10;;;;;;5026541;28;20570;-50
2022/07/07 11:16:10;;;;;;;3.30;2.27;;;24.50;49.90;;;;;;5020320;28;20529;-46
2022/07/07 11:18:37;;;;;;;2.17;2.07;;;24.20;49.90;;;;;;5032154;28;20471;-51
2022/07/07 11:21:09;;;;;;;3.20;2.30;;;24.20;50.00;;;;;;5031777;28;20732;-49
2022/07/07 11:23:55;;;;;;;2.87;2.00;;;24.30;50.10;;;;;;5026648;28;20435;-46
2022/07/07 11:26:23;;;;;;;3.37;2.17;;;24.20;51.10;;;;;;5030311;28;20463;-45
2022/07/07 11:28:53;;;;;;;6.33;1.87;;;24.00;51.80;;;;;;5030929;28;20424;-50
2022/07/07 11:31:19;;;;;;;3.60;1.90;;;23.90;51.70;;;;;;5031849;28;20519;-46
2022/07/07 11:34:11;;;;;;;4.43;2.17;;;23.80;52.10;;;;;;5028835;28;20593;-47
2022/07/07 11:36:39;;;;;;;2.57;2.37;;;23.90;51.80;;;;;;5026992;28;20225;-49
2022/07/07 11:39:16;;;;;;;5.57;2.17;;;24.10;51.50;;;;;;5030273;28;20436;-47
2022/07/07 11:41:44;;;;;;;2.70;2.20;;;24.20;51.10;;;;;;5031962;28;20755;-46
2022/07/07 11:44:20;;;;;;;2.50;1.93;;;24.20;51.30;;;;;;5028994;28;20519;-45
2022/07/07 11:46:52;;;;;;;4.10;2.20;;;24.20;50.80;;;;;;5028295;28;20466;-47
2022/07/07 11:49:20;;;;;;;4.03;2.10;;;24.10;50.70;;;;;;5028589;28;20452;-47
2022/07/07 11:51:46;;;;;;;3.00;1.97;;;24.00;51.10;;;;;;5028899;28;20436;-48
2022/07/07 11:54:12;;;;;;;2.63;1.80;;;24.00;50.90;;;;;;5026438;28;20441;-47
2022/07/07 11:56:41;;;;;;;2.60;2.37;;;24.10;51.40;;;;;;5026900;28;20484;-49
2022/07/07 11:59:09;;;;;;;2.60;2.33;;;24.20;51.50;;;;;;5026826;28;20189;-49
2022/07/07 12:01:37;;;;;;;4.07;2.30;;;24.40;51.50;;;;;;5026917;28;20455;-47
2022/07/07 12:04:22;;;;;;;16.73;2.37;;;24.50;51.00;;;;;;5024110;28;20514;-48
2022/07/07 12:06:48;;;;;;;2.57;2.00;;;24.70;50.80;;;;;;5026681;28;20894;-47
2022/07/07 12:09:16;;;;;;;2.17;1.97;;;24.60;49.50;;;;;;5027579;28;20483;-46
2022/07/07 12:11:43;;;;;;;6.07;2.70;;;24.30;49.80;;;;;;5027424;28;20906;-47
2022/07/07 12:14:10;;;;;;;4.03;2.13;;;24.20;49.90;;;;;;5029035;28;20482;-47
2022/07/07 12:16:48;;;;;;;2.60;1.70;;;24.00;50.00;;;;;;5029077;28;20487;-49
2022/07/07 12:19:15;;;;;;;6.47;2.43;;;24.00;50.40;;;;;;5027498;28;20451;-46
2022/07/07 12:21:46;;;;;;;4.87;2.60;;;24.00;50.00;;;;;;5029901;28;20466;-46
2022/07/07 12:24:16;;;;;;;4.63;3.20;;;23.90;50.10;;;;;;5027082;28;21009;-46
2022/07/07 12:26:51;;;;;;;2.57;2.00;;;24.10;49.90;;;;;;5027806;28;20462;-49
2022/07/07 12:29:21;;;;;;;4.50;2.30;;;24.20;49.90;;;;;;5026418;28;21172;-49
2022/07/07 12:31:48;;;;;;;5.23;2.50;;;24.30;49.50;;;;;;5028094;28;20451;-47
2022/07/07 12:34:16;;;;;;;7.87;3.20;;;24.30;49.40;;;;;;5026241;28;20528;-50
2022/07/07 12:36:43;;;;;;;4.07;2.27;;;24.10;49.30;;;;;;5029808;28;20491;-51
2022/07/07 12:39:09;;;;;;;4.63;2.77;;;24.30;49.90;;;;;;5025070;28;20927;-47
2022/07/07 12:41:37;;;;;;;4.40;2.93;;;24.70;49.70;;;;;;5030055;28;20450;-47
2022/07/07 12:44:14;;;;;;;4.97;2.60;;;24.90;48.70;;;;;;5027763;28;20284;-49
2022/07/07 12:46:40;;;;;;;3.70;2.63;;;24.80;48.50;;;;;;5025327;28;20969;-50
2022/07/07 12:49:06;;;;;;;4.53;2.50;;;24.80;48.50;;;;;;5028666;28;20460;-47
2022/07/07 12:51:32;;;;;;;4.37;2.43;;;24.80;48.60;;;;;;5021495;28;20455;-47
2022/07/07 12:53:59;;;;;;;2.97;2.67;;;25.00;48.70;;;;;;5025636;28;20440;-51